createdAt,value
2022-11-08T06:04:04.241Z,2.50
2022-11-08T06:06:30.876Z,2.33
2022-11-08T06:08:57.995Z,2.85
2022-11-08T06:11:26.437Z,2.85
2022-11-08T06:13:54.939Z,2.50
2022-11-08T06:16:23.408Z,3.15
2022-11-08T06:18:51.011Z,2.83
2022-11-08T06:21:20.261Z,2.83
2022-11-08T06:23:47.525Z,3.25
2022-11-08T06:26:14.189Z,2.88
2022-11-08T06:28:41.457Z,3.33
2022-11-08T06:31:08.193Z,2.40
2022-11-08T06:33:38.061Z,3.22
2022-11-08T06:36:06.737Z,2.78
2022-11-08T06:38:34.036Z,3.95
2022-11-08T06:41:01.298Z,3.20
2022-11-08T06:43:28.746Z,3.15
2022-11-08T06:45:59.316Z,3.78
2022-11-08T06:48:29.843Z,3.70
2022-11-08T06:50:59.039Z,3.40
2022-11-08T06:53:26.279Z,3.08
2022-11-08T06:55:52.853Z,3.55
2022-11-08T06:58:20.285Z,3.53
2022-11-08T07:00:47.093Z,3.53
2022-11-08T07:03:16.948Z,3.58
2022-11-08T07:05:44.565Z,3.83
2022-11-08T07:08:15.314Z,3.70
2022-11-08T07:10:42.797Z,3.97
2022-11-08T07:13:14.606Z,4.20
2022-11-08T07:15:42.553Z,3.58
2022-11-08T07:18:12.375Z,4.18
2022-11-08T07:23:06.875Z,3.80
2022-11-08T07:25:34.842Z,4.38
2022-11-08T07:28:04.504Z,4.30
2022-11-08T07:30:32.949Z,4.95
2022-11-08T07:32:59.699Z,4.88
2022-11-08T07:35:28.110Z,4.70
2022-11-08T07:37:59.251Z,5.13
2022-11-08T07:40:26.576Z,5.22
2022-11-08T07:45:41.682Z,4.40
2022-11-08T07:48:12.392Z,5.05
2022-11-08T07:50:41.958Z,4.20
2022-11-08T07:53:09.254Z,4.80
2022-11-08T07:55:37.969Z,4.78
2022-11-08T07:58:05.189Z,4.50
2022-11-08T08:00:38.802Z,4.15
2022-11-08T08:03:07.712Z,4.40
2022-11-08T08:05:38.416Z,3.83
2022-11-08T08:08:09.160Z,3.92
2022-11-08T08:10:49.803Z,3.65
2022-11-08T08:13:20.015Z,3.65
2022-11-08T08:15:51.619Z,4.15
2022-11-08T08:18:20.952Z,3.47
2022-11-08T08:20:47.866Z,3.30
2022-11-08T08:23:14.624Z,3.28
2022-11-08T08:25:41.632Z,3.40
2022-11-08T08:28:09.987Z,3.92
2022-11-08T08:30:37.412Z,3.30
2022-11-08T08:36:01.377Z,3.65
2022-11-08T08:38:29.017Z,2.90
2022-11-08T08:40:55.987Z,3.20
2022-11-08T08:43:22.724Z,2.95
2022-11-08T08:45:50.321Z,2.60
2022-11-08T08:48:17.163Z,2.83
2022-11-08T08:50:44.084Z,2.50
2022-11-08T08:53:11.084Z,2.80
2022-11-08T08:55:40.040Z,2.80
2022-11-08T08:58:06.815Z,2.70
2022-11-08T09:03:21.814Z,3.22
2022-11-08T09:05:49.379Z,3.17
2022-11-08T09:08:16.120Z,2.17
2022-11-08T09:10:44.674Z,2.40
2022-11-08T09:13:11.426Z,2.33
2022-11-08T09:15:39.690Z,1.92
2022-11-08T09:18:06.667Z,2.33
2022-11-08T09:20:33.930Z,2.22
2022-11-08T09:23:03.999Z,1.85
2022-11-08T09:25:31.696Z,2.20
2022-11-08T09:27:58.373Z,2.20
2022-11-08T09:30:26.825Z,2.00
2022-11-08T09:33:00.772Z,1.80
2022-11-08T09:35:29.662Z,1.80
2022-11-08T09:37:56.714Z,1.83
2022-11-08T09:40:49.230Z,1.85
2022-11-08T09:44:10.928Z,2.28
2022-11-08T09:46:53.159Z,1.63
2022-11-08T09:49:29.021Z,1.67
2022-11-08T09:52:06.519Z,1.88
2022-11-08T09:54:56.163Z,2.08
2022-11-08T09:57:46.249Z,1.70
2022-11-08T10:00:13.745Z,1.63
2022-11-08T10:02:41.221Z,2.10
2022-11-08T10:05:15.256Z,1.45
2022-11-08T10:07:54.763Z,1.40
2022-11-08T10:10:46.950Z,1.60
2022-11-08T10:13:33.172Z,1.63
2022-11-08T10:16:23.020Z,1.70
2022-11-08T10:21:48.569Z,2.00
2022-11-08T10:24:27.784Z,1.40
2022-11-08T10:26:57.946Z,1.55
2022-11-08T10:29:35.430Z,1.52
2022-11-08T10:32:34.906Z,1.40
2022-11-08T10:35:16.962Z,1.33
2022-11-08T10:37:52.226Z,2.97
2022-11-08T10:40:38.889Z,1.50
2022-11-08T10:43:44.470Z,2.03
2022-11-08T10:46:37.334Z,1.63
2022-11-08T10:49:13.186Z,1.38
2022-11-08T10:51:40.395Z,1.30
2022-11-08T10:54:07.042Z,1.60
2022-11-08T10:56:55.208Z,1.77
2022-11-08T10:59:32.086Z,1.02
2022-11-08T11:02:00.215Z,1.65
2022-11-08T11:04:32.791Z,2.00
2022-11-08T11:07:14.821Z,1.73
2022-11-08T11:09:41.426Z,1.63
2022-11-08T11:12:09.223Z,1.48
2022-11-08T11:14:37.566Z,1.38
2022-11-08T11:17:14.068Z,1.30
2022-11-08T11:19:44.694Z,1.20
2022-11-08T11:22:15.098Z,1.33
2022-11-08T11:24:51.859Z,1.17
2022-11-08T11:27:28.337Z,6.82
2022-11-08T11:30:23.726Z,1.95
2022-11-08T11:33:04.730Z,1.17
2022-11-08T11:35:41.852Z,1.20
2022-11-08T11:38:19.206Z,1.60
2022-11-08T11:40:47.809Z,1.23
2022-11-08T11:43:26.524Z,1.50
2022-11-08T11:46:01.530Z,1.73
2022-11-08T11:48:30.100Z,1.27
2022-11-08T11:50:57.637Z,1.58
2022-11-08T11:53:32.917Z,1.73
2022-11-08T11:56:19.001Z,1.73
2022-11-08T11:59:08.476Z,4.60
2022-11-08T12:01:58.125Z,2.58
2022-11-08T12:04:36.908Z,1.70
2022-11-08T12:07:28.048Z,1.40
2022-11-08T12:10:02.352Z,1.40
2022-11-08T12:12:38.199Z,1.40
2022-11-08T12:15:29.414Z,1.45
2022-11-08T12:18:25.710Z,1.20
2022-11-08T12:21:34.531Z,1.60
2022-11-08T12:24:41.769Z,1.35
2022-11-08T12:27:30.043Z,1.20
2022-11-08T12:30:04.387Z,1.42
2022-11-08T12:32:50.131Z,1.52
2022-11-08T12:35:29.293Z,1.60
2022-11-08T12:38:34.063Z,1.63
2022-11-08T12:41:17.543Z,1.75
2022-11-08T12:44:03.563Z,1.40
2022-11-08T12:46:38.096Z,1.80
2022-11-08T12:49:20.063Z,1.65
2022-11-08T12:52:11.479Z,1.40
2022-11-08T12:54:51.403Z,1.48
2022-11-08T12:57:28.458Z,1.17
2022-11-08T13:00:06.536Z,1.58
2022-11-08T13:02:37.923Z,1.88
2022-11-08T13:05:25.587Z,1.33
2022-11-08T13:08:18.645Z,1.30
2022-11-08T13:10:57.866Z,1.52
2022-11-08T13:13:50.074Z,1.20
2022-11-08T13:16:29.633Z,1.33
2022-11-08T13:19:05.740Z,1.30
2022-11-08T13:21:35.077Z,1.30
2022-11-08T13:24:06.737Z,1.45
2022-11-08T13:26:42.200Z,1.70
2022-11-08T13:29:15.951Z,1.52
2022-11-08T13:32:02.610Z,1.50
2022-11-08T13:34:29.145Z,1.60
2022-11-08T13:37:13.989Z,1.77
2022-11-08T13:39:54.819Z,1.88
2022-11-08T13:42:21.948Z,1.40
2022-11-08T13:44:54.706Z,1.52
2022-11-08T13:47:34.196Z,1.63
2022-11-08T13:50:28.593Z,1.85
2022-11-08T13:53:03.404Z,2.10
2022-11-08T13:55:43.542Z,1.80
2022-11-08T13:58:38.467Z,2.20
2022-11-08T14:01:09.397Z,1.90
2022-11-08T14:03:36.017Z,1.52
2022-11-08T14:06:06.178Z,1.67
2022-11-08T14:08:50.101Z,1.27
2022-11-08T14:11:40.974Z,1.30
2022-11-08T14:14:28.104Z,2.08
2022-11-08T14:17:26.285Z,1.35
2022-11-08T14:19:56.088Z,1.33
2022-11-08T14:22:27.100Z,1.23
2022-11-08T14:24:58.318Z,1.65
2022-11-08T14:27:34.892Z,1.70
2022-11-08T14:30:02.091Z,1.30
2022-11-08T14:32:29.497Z,1.70
2022-11-08T14:35:18.881Z,1.63
2022-11-08T14:37:46.116Z,1.48
2022-11-08T14:40:21.948Z,1.63
2022-11-08T14:42:50.824Z,1.92
2022-11-08T14:45:24.617Z,1.30
2022-11-08T14:47:56.610Z,1.80
2022-11-08T14:50:24.272Z,1.67
2022-11-08T14:52:51.491Z,1.55
2022-11-08T14:55:23.878Z,1.92
2022-11-08T14:57:51.039Z,1.83
2022-11-08T15:00:21.093Z,1.55
2022-11-08T15:02:52.223Z,1.30
2022-11-08T15:05:47.193Z,1.50
2022-11-08T15:08:28.215Z,1.73
2022-11-08T15:11:07.480Z,2.33
2022-11-08T15:13:49.235Z,2.35
2022-11-08T15:16:16.293Z,2.17
2022-11-08T15:18:44.810Z,1.92
2022-11-08T15:21:20.404Z,1.98
2022-11-08T15:23:50.589Z,1.95
2022-11-08T15:26:22.251Z,1.65
2022-11-08T15:29:14.163Z,1.58
2022-11-08T15:31:55.569Z,3.38
2022-11-08T15:34:31.743Z,2.17
2022-11-08T15:36:58.348Z,1.80
2022-11-08T15:39:36.960Z,1.92
2022-11-08T15:42:14.795Z,1.75
2022-11-08T15:45:07.752Z,2.05
2022-11-08T15:47:44.169Z,1.95
2022-11-08T15:50:15.501Z,1.85
2022-11-08T15:52:43.562Z,1.67
2022-11-08T15:55:15.723Z,1.80
2022-11-08T15:57:44.446Z,1.83
2022-11-08T16:00:24.064Z,2.10
2022-11-08T16:02:52.489Z,1.90
2022-11-08T16:05:27.650Z,2.10
2022-11-08T16:07:55.432Z,1.80
2022-11-08T16:10:29.667Z,2.08
2022-11-08T16:12:59.698Z,1.85
2022-11-08T16:15:29.527Z,2.03
2022-11-08T16:17:56.417Z,1.58
2022-11-08T16:20:32.497Z,1.88
2022-11-08T16:23:02.168Z,1.60
2022-11-08T16:25:31.313Z,2.40
2022-11-08T16:28:08.514Z,3.05
2022-11-08T16:30:36.356Z,2.30
2022-11-08T16:33:19.105Z,2.25
2022-11-08T16:35:45.879Z,3.10
2022-11-08T16:38:12.682Z,4.43
2022-11-08T16:40:41.582Z,2.90
2022-11-08T16:43:11.396Z,2.40
2022-11-08T16:46:03.821Z,1.90
2022-11-08T16:48:26.932Z,2.38
2022-11-08T16:51:06.181Z,2.50
2022-11-08T16:53:33.437Z,2.08
2022-11-08T16:56:00.071Z,2.90
2022-11-08T16:58:28.005Z,2.30
2022-11-08T17:00:56.734Z,2.28
2022-11-08T17:03:25.268Z,2.13
2022-11-08T17:05:54.233Z,3.05
2022-11-08T17:08:21.735Z,2.00
2022-11-08T17:10:49.144Z,2.20
2022-11-08T17:13:17.778Z,2.40
2022-11-08T17:15:45.147Z,2.08
2022-11-08T17:18:14.135Z,2.28
2022-11-08T17:20:41.913Z,9.75
2022-11-08T17:23:09.299Z,3.92
2022-11-08T17:25:38.166Z,2.65
2022-11-08T17:28:04.902Z,2.08
2022-11-08T17:30:32.456Z,2.20
2022-11-08T17:32:59.032Z,2.10
2022-11-08T17:35:26.303Z,1.95
2022-11-08T17:37:53.609Z,2.03
2022-11-08T17:40:20.819Z,3.58
2022-11-08T17:42:47.481Z,3.47
2022-11-08T17:45:14.663Z,2.40
2022-11-08T17:47:41.254Z,2.28
2022-11-08T17:50:10.287Z,2.20
2022-11-08T17:52:37.147Z,1.97
2022-11-08T17:55:04.907Z,1.83
2022-11-08T17:57:31.585Z,2.00
2022-11-08T17:59:58.865Z,2.10
2022-11-08T18:02:27.364Z,2.67
2022-11-08T18:04:55.139Z,3.45
2022-11-08T18:07:21.750Z,2.58
2022-11-08T18:09:48.936Z,2.25
2022-11-08T18:12:15.634Z,2.45
2022-11-08T18:14:42.802Z,2.22
2022-11-08T18:17:09.316Z,2.08
2022-11-08T18:19:37.498Z,2.75
2022-11-08T18:22:04.633Z,2.10
2022-11-08T18:24:32.179Z,1.77
2022-11-08T18:26:59.015Z,2.22
2022-11-08T18:29:26.345Z,1.92
2022-11-08T18:31:52.909Z,2.00
2022-11-08T18:34:20.180Z,2.30
2022-11-08T18:36:49.100Z,2.00
2022-11-08T18:39:19.451Z,2.75
2022-11-08T18:41:46.662Z,2.30
2022-11-08T18:44:13.611Z,2.20
2022-11-08T18:46:43.549Z,2.25
2022-11-08T18:49:11.267Z,2.58
2022-11-08T18:51:37.994Z,2.08
2022-11-08T18:54:06.244Z,2.58
2022-11-08T18:56:32.979Z,2.58
2022-11-08T18:59:00.246Z,2.20
2022-11-08T19:01:26.928Z,2.53
2022-11-08T19:03:54.127Z,2.00
2022-11-08T19:06:20.697Z,1.70
2022-11-08T19:08:47.975Z,2.00
2022-11-08T19:11:15.232Z,2.13
2022-11-08T19:13:42.564Z,2.25
2022-11-08T19:16:13.478Z,2.10
2022-11-08T19:18:41.593Z,2.25
2022-11-08T19:21:12.575Z,2.33
2022-11-08T19:23:39.923Z,2.55
2022-11-08T19:26:11.619Z,2.20
2022-11-08T19:28:41.066Z,2.13
2022-11-08T19:31:08.705Z,2.58
2022-11-08T19:33:36.547Z,2.28
2022-11-08T19:36:09.183Z,2.17
2022-11-08T19:38:38.332Z,2.60
2022-11-08T19:41:10.667Z,2.53
2022-11-08T19:43:39.299Z,2.25
2022-11-08T19:46:08.818Z,2.20
2022-11-08T19:48:39.715Z,2.20
2022-11-08T19:51:20.712Z,2.17
2022-11-08T19:53:56.287Z,1.67
2022-11-08T19:56:32.917Z,2.55
2022-11-08T19:59:05.183Z,2.50
2022-11-08T20:01:36.306Z,2.30
2022-11-08T20:04:06.288Z,2.63
2022-11-08T20:09:01.099Z,2.05
2022-11-08T20:11:31.124Z,2.47
2022-11-08T20:14:19.368Z,1.73
2022-11-08T20:16:53.059Z,2.35
2022-11-08T20:19:21.648Z,1.92
2022-11-08T20:21:48.575Z,2.20
2022-11-08T20:24:15.989Z,1.92
2022-11-08T20:26:43.410Z,1.88
2022-11-08T20:29:10.843Z,1.80
2022-11-08T20:31:38.705Z,1.75
2022-11-08T20:34:10.653Z,1.92
2022-11-08T20:36:37.959Z,2.35
2022-11-08T20:39:07.817Z,2.30
2022-11-08T20:41:37.286Z,2.03
2022-11-08T20:44:05.641Z,2.00
2022-11-08T20:46:33.084Z,1.90
2022-11-08T20:49:01.071Z,2.13
2022-11-08T20:51:28.878Z,2.08
2022-11-08T20:53:56.401Z,1.88
2022-11-08T20:56:27.782Z,2.05
2022-11-08T20:58:57.070Z,2.47
2022-11-08T21:01:28.553Z,2.28
2022-11-08T21:03:56.877Z,1.92
2022-11-08T21:06:26.216Z,1.65
2022-11-08T21:11:39.893Z,1.95
2022-11-08T21:14:06.576Z,1.92
2022-11-08T21:16:47.355Z,2.10
2022-11-08T21:19:20.607Z,2.00
2022-11-08T21:21:50.036Z,1.80
2022-11-08T21:24:17.192Z,2.15
2022-11-08T21:26:43.799Z,1.98
2022-11-08T21:29:10.406Z,2.03
